sensor_id;sensor_type;location;lat;lon;timestamp;P1;durP1;ratioP1;P2;durP2;ratioP2
5831;SDS011;50943;51.448;7.646;2023-04-08T00:00:47;45.70;;;12.77;;
5831;SDS011;50943;51.448;7.646;2023-04-08T00:03:14;30.33;;;13.13;;
5831;SDS011;50943;51.448;7.646;2023-04-08T00:05:40;34.23;;;11.53;;
5831;SDS011;50943;51.448;7.646;2023-04-08T00:08:07;50.47;;;12.37;;
5831;SDS011;50943;51.448;7.646;2023-04-08T00:10:33;30.50;;;12.50;;
5831;SDS011;50943;51.448;7.646;2023-04-08T00:13:00;38.50;;;12.43;;
5831;SDS011;50943;51.448;7.646;2023-04-08T00:15:28;35.63;;;11.83;;
5831;SDS011;50943;51.448;7.646;2023-04-08T00:17:55;50.00;;;12.17;;
5831;SDS011;50943;51.448;7.646;2023-04-08T00:20:21;49.43;;;12.90;;
5831;SDS011;50943;51.448;7.646;2023-04-08T00:22:49;55.67;;;13.47;;
5831;SDS011;50943;51.448;7.646;2023-04-08T00:25:15;52.70;;;15.00;;
5831;SDS011;50943;51.448;7.646;2023-04-08T00:27:42;83.03;;;15.43;;
5831;SDS011;50943;51.448;7.646;2023-04-08T00:30:09;77.97;;;15.90;;
5831;SDS011;50943;51.448;7.646;2023-04-08T00:32:37;61.13;;;14.47;;
5831;SDS011;50943;51.448;7.646;2023-04-08T00:35:04;57.03;;;14.80;;
5831;SDS011;50943;51.448;7.646;2023-04-08T00:37:31;68.27;;;16.00;;
5831;SDS011;50943;51.448;7.646;2023-04-08T00:39:59;43.73;;;15.93;;
5831;SDS011;50943;51.448;7.646;2023-04-08T00:42:25;59.70;;;16.00;;
5831;SDS011;50943;51.448;7.646;2023-04-08T00:44:54;72.37;;;15.90;;
5831;SDS011;50943;51.448;7.646;2023-04-08T00:47:21;97.37;;;17.23;;
5831;SDS011;50943;51.448;7.646;2023-04-08T00:49:49;111.53;;;18.20;;
5831;SDS011;50943;51.448;7.646;2023-04-08T00:52:15;74.57;;;15.80;;
5831;SDS011;50943;51.448;7.646;2023-04-08T00:54:42;89.07;;;16.10;;
5831;SDS011;50943;51.448;7.646;2023-04-08T00:57:08;55.07;;;17.00;;
5831;SDS011;50943;51.448;7.646;2023-04-08T00:59:35;56.47;;;17.17;;
5831;SDS011;50943;51.448;7.646;2023-04-08T01:02:04;50.00;;;16.87;;
5831;SDS011;50943;51.448;7.646;2023-04-08T01:04:36;34.10;;;16.67;;
5831;SDS011;50943;51.448;7.646;2023-04-08T01:07:09;53.40;;;15.27;;
5831;SDS011;50943;51.448;7.646;2023-04-08T01:09:40;56.93;;;15.30;;
5831;SDS011;50943;51.448;7.646;2023-04-08T01:12:10;52.70;;;16.37;;
5831;SDS011;50943;51.448;7.646;2023-04-08T01:14:38;37.47;;;15.70;;
5831;SDS011;50943;51.448;7.646;2023-04-08T01:17:08;34.13;;;15.23;;
5831;SDS011;50943;51.448;7.646;2023-04-08T01:19:36;36.50;;;15.60;;
5831;SDS011;50943;51.448;7.646;2023-04-08T01:22:08;57.03;;;15.30;;
5831;SDS011;50943;51.448;7.646;2023-04-08T01:24:38;40.53;;;16.27;;
5831;SDS011;50943;51.448;7.646;2023-04-08T01:27:07;42.40;;;15.47;;
5831;SDS011;50943;51.448;7.646;2023-04-08T01:29:35;70.43;;;18.10;;
5831;SDS011;50943;51.448;7.646;2023-04-08T01:32:02;60.87;;;15.80;;
5831;SDS011;50943;51.448;7.646;2023-04-08T01:34:29;49.70;;;13.93;;
5831;SDS011;50943;51.448;7.646;2023-04-08T01:36:56;48.37;;;16.73;;
5831;SDS011;50943;51.448;7.646;2023-04-08T01:39:23;50.77;;;16.70;;
5831;SDS011;50943;51.448;7.646;2023-04-08T01:41:51;68.00;;;16.47;;
5831;SDS011;50943;51.448;7.646;2023-04-08T01:44:20;57.97;;;16.60;;
5831;SDS011;50943;51.448;7.646;2023-04-08T01:46:47;67.33;;;16.53;;
5831;SDS011;50943;51.448;7.646;2023-04-08T01:49:14;82.43;;;16.93;;
5831;SDS011;50943;51.448;7.646;2023-04-08T01:51:41;72.03;;;17.27;;
5831;SDS011;50943;51.448;7.646;2023-04-08T01:54:08;46.10;;;16.13;;
5831;SDS011;50943;51.448;7.646;2023-04-08T01:56:35;40.73;;;14.23;;
5831;SDS011;50943;51.448;7.646;2023-04-08T01:59:04;69.40;;;16.80;;
5831;SDS011;50943;51.448;7.646;2023-04-08T02:01:34;64.20;;;16.80;;
5831;SDS011;50943;51.448;7.646;2023-04-08T02:04:01;78.57;;;16.00;;
5831;SDS011;50943;51.448;7.646;2023-04-08T02:06:28;62.80;;;15.63;;
5831;SDS011;50943;51.448;7.646;2023-04-08T02:08:56;47.97;;;17.00;;
5831;SDS011;50943;51.448;7.646;2023-04-08T02:11:22;36.27;;;14.30;;
5831;SDS011;50943;51.448;7.646;2023-04-08T02:13:49;53.20;;;16.13;;
5831;SDS011;50943;51.448;7.646;2023-04-08T02:16:18;53.63;;;15.80;;
5831;SDS011;50943;51.448;7.646;2023-04-08T02:18:52;40.67;;;15.40;;
5831;SDS011;50943;51.448;7.646;2023-04-08T02:21:26;72.00;;;16.70;;
5831;SDS011;50943;51.448;7.646;2023-04-08T02:23:57;72.10;;;16.33;;
5831;SDS011;50943;51.448;7.646;2023-04-08T02:26:24;50.90;;;15.57;;
5831;SDS011;50943;51.448;7.646;2023-04-08T02:28:51;66.10;;;16.53;;
5831;SDS011;50943;51.448;7.646;2023-04-08T02:31:18;54.90;;;14.90;;
5831;SDS011;50943;51.448;7.646;2023-04-08T02:33:45;58.53;;;16.70;;
5831;SDS011;50943;51.448;7.646;2023-04-08T02:36:13;35.93;;;14.83;;
5831;SDS011;50943;51.448;7.646;2023-04-08T02:38:40;35.47;;;15.93;;
5831;SDS011;50943;51.448;7.646;2023-04-08T02:41:06;32.83;;;15.23;;
5831;SDS011;50943;51.448;7.646;2023-04-08T02:43:33;54.07;;;15.90;;
5831;SDS011;50943;51.448;7.646;2023-04-08T02:45:59;62.93;;;17.80;;
5831;SDS011;50943;51.448;7.646;2023-04-08T02:48:27;65.27;;;18.63;;
5831;SDS011;50943;51.448;7.646;2023-04-08T02:50:54;54.27;;;17.70;;
5831;SDS011;50943;51.448;7.646;2023-04-08T02:53:22;40.30;;;13.27;;
5831;SDS011;50943;51.448;7.646;2023-04-08T02:55:49;31.90;;;14.30;;
5831;SDS011;50943;51.448;7.646;2023-04-08T02:58:15;26.17;;;14.10;;
5831;SDS011;50943;51.448;7.646;2023-04-08T03:00:42;33.40;;;14.83;;
5831;SDS011;50943;51.448;7.646;2023-04-08T03:03:08;27.80;;;13.93;;
5831;SDS011;50943;51.448;7.646;2023-04-08T03:05:35;48.90;;;13.67;;
5831;SDS011;50943;51.448;7.646;2023-04-08T03:08:01;42.17;;;14.60;;
5831;SDS011;50943;51.448;7.646;2023-04-08T03:10:29;41.27;;;15.10;;
5831;SDS011;50943;51.448;7.646;2023-04-08T03:12:56;34.90;;;13.97;;
5831;SDS011;50943;51.448;7.646;2023-04-08T03:15:22;31.93;;;14.40;;
5831;SDS011;50943;51.448;7.646;2023-04-08T03:17:49;32.47;;;13.97;;
5831;SDS011;50943;51.448;7.646;2023-04-08T03:20:16;38.83;;;14.87;;
5831;SDS011;50943;51.448;7.646;2023-04-08T03:22:42;45.03;;;14.17;;
5831;SDS011;50943;51.448;7.646;2023-04-08T03:25:09;25.23;;;12.83;;
5831;SDS011;50943;51.448;7.646;2023-04-08T03:27:37;42.87;;;14.70;;
5831;SDS011;50943;51.448;7.646;2023-04-08T03:30:04;46.40;;;14.70;;
5831;SDS011;50943;51.448;7.646;2023-04-08T03:32:32;37.30;;;14.53;;
5831;SDS011;50943;51.448;7.646;2023-04-08T03:34:58;41.40;;;15.47;;
5831;SDS011;50943;51.448;7.646;2023-04-08T03:37:25;74.60;;;16.50;;
5831;SDS011;50943;51.448;7.646;2023-04-08T03:39:51;34.73;;;15.03;;
5831;SDS011;50943;51.448;7.646;2023-04-08T03:42:18;55.27;;;14.87;;
5831;SDS011;50943;51.448;7.646;2023-04-08T03:44:46;36.80;;;14.70;;
5831;SDS011;50943;51.448;7.646;2023-04-08T03:47:13;51.13;;;15.67;;
5831;SDS011;50943;51.448;7.646;2023-04-08T03:49:39;49.83;;;15.67;;
5831;SDS011;50943;51.448;7.646;2023-04-08T03:52:06;85.93;;;17.37;;
5831;SDS011;50943;51.448;7.646;2023-04-08T03:54:32;41.83;;;13.57;;
5831;SDS011;50943;51.448;7.646;2023-04-08T03:56:59;58.47;;;15.67;;
5831;SDS011;50943;51.448;7.646;2023-04-08T03:59:25;63.10;;;16.57;;
5831;SDS011;50943;51.448;7.646;2023-04-08T04:01:53;67.73;;;16.80;;
5831;SDS011;50943;51.448;7.646;2023-04-08T04:04:20;49.53;;;15.13;;
5831;SDS011;50943;51.448;7.646;2023-04-08T04:06:47;73.43;;;15.80;;
5831;SDS011;50943;51.448;7.646;2023-04-08T04:09:13;56.83;;;16.30;;
5831;SDS011;50943;51.448;7.646;2023-04-08T04:11:40;98.37;;;15.20;;
5831;SDS011;50943;51.448;7.646;2023-04-08T04:14:07;63.07;;;15.87;;
5831;SDS011;50943;51.448;7.646;2023-04-08T04:16:33;95.27;;;17.00;;
5831;SDS011;50943;51.448;7.646;2023-04-08T04:19:01;52.13;;;16.00;;
5831;SDS011;50943;51.448;7.646;2023-04-08T04:21:28;65.20;;;15.90;;
5831;SDS011;50943;51.448;7.646;2023-04-08T04:23:54;49.47;;;16.20;;
5831;SDS011;50943;51.448;7.646;2023-04-08T04:26:21;43.93;;;17.00;;
5831;SDS011;50943;51.448;7.646;2023-04-08T04:28:47;41.10;;;16.00;;
5831;SDS011;50943;51.448;7.646;2023-04-08T04:31:18;59.57;;;16.70;;
5831;SDS011;50943;51.448;7.646;2023-04-08T04:33:46;65.80;;;17.83;;
5831;SDS011;50943;51.448;7.646;2023-04-08T04:36:14;76.67;;;16.87;;
5831;SDS011;50943;51.448;7.646;2023-04-08T04:38:40;54.43;;;16.17;;
5831;SDS011;50943;51.448;7.646;2023-04-08T04:41:07;75.20;;;16.57;;
5831;SDS011;50943;51.448;7.646;2023-04-08T04:43:34;62.60;;;17.40;;
5831;SDS011;50943;51.448;7.646;2023-04-08T04:46:01;56.03;;;15.63;;
5831;SDS011;50943;51.448;7.646;2023-04-08T04:48:28;50.23;;;16.17;;
5831;SDS011;50943;51.448;7.646;2023-04-08T04:50:54;57.03;;;15.40;;
5831;SDS011;50943;51.448;7.646;2023-04-08T04:53:22;100.33;;;16.63;;
5831;SDS011;50943;51.448;7.646;2023-04-08T04:55:49;62.90;;;15.60;;
5831;SDS011;50943;51.448;7.646;2023-04-08T04:58:16;53.77;;;15.37;;
5831;SDS011;50943;51.448;7.646;2023-04-08T05:00:42;61.10;;;15.80;;
5831;SDS011;50943;51.448;7.646;2023-04-08T05:03:09;48.47;;;16.10;;
5831;SDS011;50943;51.448;7.646;2023-04-08T05:05:35;89.63;;;14.77;;
5831;SDS011;50943;51.448;7.646;2023-04-08T05:08:02;76.33;;;16.17;;
5831;SDS011;50943;51.448;7.646;2023-04-08T05:10:30;61.57;;;16.63;;
5831;SDS011;50943;51.448;7.646;2023-04-08T05:12:57;56.97;;;15.30;;
5831;SDS011;50943;51.448;7.646;2023-04-08T05:15:23;50.60;;;13.70;;
5831;SDS011;50943;51.448;7.646;2023-04-08T05:17:50;47.20;;;15.00;;
5831;SDS011;50943;51.448;7.646;2023-04-08T05:20:16;24.70;;;12.70;;
5831;SDS011;50943;51.448;7.646;2023-04-08T05:22:43;27.60;;;12.60;;
5831;SDS011;50943;51.448;7.646;2023-04-08T05:25:09;26.30;;;12.87;;
5831;SDS011;50943;51.448;7.646;2023-04-08T05:27:38;27.53;;;12.20;;
5831;SDS011;50943;51.448;7.646;2023-04-08T05:30:05;27.80;;;13.17;;
5831;SDS011;50943;51.448;7.646;2023-04-08T05:32:33;23.60;;;10.47;;
5831;SDS011;50943;51.448;7.646;2023-04-08T05:35:00;21.00;;;11.10;;
5831;SDS011;50943;51.448;7.646;2023-04-08T05:37:27;25.57;;;10.90;;
5831;SDS011;50943;51.448;7.646;2023-04-08T05:39:54;30.47;;;11.07;;
5831;SDS011;50943;51.448;7.646;2023-04-08T05:42:20;19.83;;;10.70;;
5831;SDS011;50943;51.448;7.646;2023-04-08T05:44:48;21.97;;;11.53;;
5831;SDS011;50943;51.448;7.646;2023-04-08T05:47:15;23.40;;;11.77;;
5831;SDS011;50943;51.448;7.646;2023-04-08T05:49:42;27.90;;;11.13;;
5831;SDS011;50943;51.448;7.646;2023-04-08T05:52:08;26.57;;;11.17;;
5831;SDS011;50943;51.448;7.646;2023-04-08T05:54:35;25.93;;;12.50;;
5831;SDS011;50943;51.448;7.646;2023-04-08T05:57:02;23.03;;;11.27;;
5831;SDS011;50943;51.448;7.646;2023-04-08T05:59:28;19.43;;;10.67;;
5831;SDS011;50943;51.448;7.646;2023-04-08T06:01:56;23.07;;;10.80;;
5831;SDS011;50943;51.448;7.646;2023-04-08T06:04:23;31.10;;;12.33;;
5831;SDS011;50943;51.448;7.646;2023-04-08T06:06:49;27.27;;;12.87;;
5831;SDS011;50943;51.448;7.646;2023-04-08T06:09:16;31.93;;;15.00;;
5831;SDS011;50943;51.448;7.646;2023-04-08T06:11:42;33.73;;;12.73;;
5831;SDS011;50943;51.448;7.646;2023-04-08T06:14:11;40.40;;;13.23;;
5831;SDS011;50943;51.448;7.646;2023-04-08T06:16:37;44.33;;;15.63;;
5831;SDS011;50943;51.448;7.646;2023-04-08T06:19:05;32.23;;;13.77;;
5831;SDS011;50943;51.448;7.646;2023-04-08T06:21:32;39.47;;;14.23;;
5831;SDS011;50943;51.448;7.646;2023-04-08T06:23:59;35.27;;;13.70;;
5831;SDS011;50943;51.448;7.646;2023-04-08T06:26:25;40.07;;;14.93;;
5831;SDS011;50943;51.448;7.646;2023-04-08T06:28:52;37.47;;;15.50;;
5831;SDS011;50943;51.448;7.646;2023-04-08T06:31:19;28.23;;;14.23;;
5831;SDS011;50943;51.448;7.646;2023-04-08T06:33:46;46.03;;;15.07;;
5831;SDS011;50943;51.448;7.646;2023-04-08T06:36:14;33.37;;;14.30;;
5831;SDS011;50943;51.448;7.646;2023-04-08T06:38:40;39.97;;;15.90;;
5831;SDS011;50943;51.448;7.646;2023-04-08T06:41:07;37.20;;;14.87;;
5831;SDS011;50943;51.448;7.646;2023-04-08T06:43:34;39.43;;;14.83;;
5831;SDS011;50943;51.448;7.646;2023-04-08T06:46:01;32.50;;;15.37;;
5831;SDS011;50943;51.448;7.646;2023-04-08T06:48:28;40.40;;;14.00;;
5831;SDS011;50943;51.448;7.646;2023-04-08T06:50:55;33.53;;;15.67;;
5831;SDS011;50943;51.448;7.646;2023-04-08T06:53:23;35.33;;;14.90;;
5831;SDS011;50943;51.448;7.646;2023-04-08T06:55:50;41.40;;;17.33;;
5831;SDS011;50943;51.448;7.646;2023-04-08T06:58:19;39.13;;;15.40;;
5831;SDS011;50943;51.448;7.646;2023-04-08T07:00:46;33.23;;;15.40;;
5831;SDS011;50943;51.448;7.646;2023-04-08T07:03:12;34.87;;;16.53;;
5831;SDS011;50943;51.448;7.646;2023-04-08T07:05:39;39.30;;;14.53;;
5831;SDS011;50943;51.448;7.646;2023-04-08T07:08:06;36.07;;;16.23;;
5831;SDS011;50943;51.448;7.646;2023-04-08T07:10:35;39.27;;;18.00;;
5831;SDS011;50943;51.448;7.646;2023-04-08T07:13:01;42.20;;;17.43;;
5831;SDS011;50943;51.448;7.646;2023-04-08T07:15:28;44.10;;;19.27;;
5831;SDS011;50943;51.448;7.646;2023-04-08T07:17:55;39.70;;;19.10;;
5831;SDS011;50943;51.448;7.646;2023-04-08T07:20:21;43.47;;;18.60;;
5831;SDS011;50943;51.448;7.646;2023-04-08T07:22:48;56.00;;;20.37;;
5831;SDS011;50943;51.448;7.646;2023-04-08T07:25:14;47.10;;;19.80;;
5831;SDS011;50943;51.448;7.646;2023-04-08T07:27:43;39.40;;;19.67;;
5831;SDS011;50943;51.448;7.646;2023-04-08T07:30:09;40.97;;;19.57;;
5831;SDS011;50943;51.448;7.646;2023-04-08T07:32:36;42.17;;;21.17;;
5831;SDS011;50943;51.448;7.646;2023-04-08T07:35:03;37.63;;;20.33;;
5831;SDS011;50943;51.448;7.646;2023-04-08T07:37:30;38.60;;;21.50;;
5831;SDS011;50943;51.448;7.646;2023-04-08T07:39:57;38.03;;;22.00;;
5831;SDS011;50943;51.448;7.646;2023-04-08T07:42:23;43.93;;;23.07;;
5831;SDS011;50943;51.448;7.646;2023-04-08T07:44:52;43.10;;;23.30;;
5831;SDS011;50943;51.448;7.646;2023-04-08T07:47:18;41.73;;;23.90;;
5831;SDS011;50943;51.448;7.646;2023-04-08T07:49:45;40.13;;;24.33;;
5831;SDS011;50943;51.448;7.646;2023-04-08T07:52:13;36.73;;;21.80;;
5831;SDS011;50943;51.448;7.646;2023-04-08T07:54:39;41.13;;;23.00;;
5831;SDS011;50943;51.448;7.646;2023-04-08T07:57:06;42.17;;;22.23;;
5831;SDS011;50943;51.448;7.646;2023-04-08T07:59:32;35.10;;;20.80;;
5831;SDS011;50943;51.448;7.646;2023-04-08T08:02:00;27.93;;;18.10;;
5831;SDS011;50943;51.448;7.646;2023-04-08T08:04:27;29.83;;;19.07;;
5831;SDS011;50943;51.448;7.646;2023-04-08T08:06:53;33.83;;;20.07;;
5831;SDS011;50943;51.448;7.646;2023-04-08T08:09:20;36.10;;;22.00;;
5831;SDS011;50943;51.448;7.646;2023-04-08T08:11:48;28.50;;;19.27;;
5831;SDS011;50943;51.448;7.646;2023-04-08T08:14:14;32.83;;;20.33;;
5831;SDS011;50943;51.448;7.646;2023-04-08T08:16:41;31.77;;;20.70;;
5831;SDS011;50943;51.448;7.646;2023-04-08T08:19:10;33.17;;;21.70;;
5831;SDS011;50943;51.448;7.646;2023-04-08T08:21:37;32.70;;;21.13;;
5831;SDS011;50943;51.448;7.646;2023-04-08T08:24:04;34.30;;;20.93;;
5831;SDS011;50943;51.448;7.646;2023-04-08T08:26:33;35.30;;;22.03;;
5831;SDS011;50943;51.448;7.646;2023-04-08T08:29:00;33.90;;;19.87;;
5831;SDS011;50943;51.448;7.646;2023-04-08T08:31:27;35.50;;;22.03;;
5831;SDS011;50943;51.448;7.646;2023-04-08T08:33:53;36.70;;;22.67;;
5831;SDS011;50943;51.448;7.646;2023-04-08T08:36:21;34.53;;;21.37;;
5831;SDS011;50943;51.448;7.646;2023-04-08T08:38:48;35.40;;;21.97;;
5831;SDS011;50943;51.448;7.646;2023-04-08T08:41:15;33.47;;;21.50;;
5831;SDS011;50943;51.448;7.646;2023-04-08T08:43:42;31.23;;;20.10;;
5831;SDS011;50943;51.448;7.646;2023-04-08T08:46:10;31.67;;;20.53;;
5831;SDS011;50943;51.448;7.646;2023-04-08T08:48:37;31.63;;;20.40;;
5831;SDS011;50943;51.448;7.646;2023-04-08T08:51:06;29.00;;;18.80;;
5831;SDS011;50943;51.448;7.646;2023-04-08T08:53:35;33.30;;;19.97;;
5831;SDS011;50943;51.448;7.646;2023-04-08T08:56:01;30.03;;;18.27;;
5831;SDS011;50943;51.448;7.646;2023-04-08T08:58:30;28.17;;;18.67;;
5831;SDS011;50943;51.448;7.646;2023-04-08T09:00:57;33.87;;;20.00;;
5831;SDS011;50943;51.448;7.646;2023-04-08T09:03:26;30.50;;;19.97;;
5831;SDS011;50943;51.448;7.646;2023-04-08T09:05:56;27.40;;;18.53;;
5831;SDS011;50943;51.448;7.646;2023-04-08T09:08:27;29.60;;;18.20;;
5831;SDS011;50943;51.448;7.646;2023-04-08T09:11:11;30.67;;;19.67;;
5831;SDS011;50943;51.448;7.646;2023-04-08T09:13:39;30.20;;;19.40;;
5831;SDS011;50943;51.448;7.646;2023-04-08T09:16:09;34.50;;;20.40;;
5831;SDS011;50943;51.448;7.646;2023-04-08T09:18:37;31.23;;;20.13;;
5831;SDS011;50943;51.448;7.646;2023-04-08T09:21:05;30.97;;;20.37;;
5831;SDS011;50943;51.448;7.646;2023-04-08T09:23:39;32.37;;;20.23;;
5831;SDS011;50943;51.448;7.646;2023-04-08T09:26:09;28.63;;;18.70;;
5831;SDS011;50943;51.448;7.646;2023-04-08T09:28:36;26.90;;;18.03;;
5831;SDS011;50943;51.448;7.646;2023-04-08T09:31:16;26.10;;;17.20;;
5831;SDS011;50943;51.448;7.646;2023-04-08T09:33:44;26.33;;;16.17;;
5831;SDS011;50943;51.448;7.646;2023-04-08T09:36:12;23.70;;;15.80;;
5831;SDS011;50943;51.448;7.646;2023-04-08T09:38:39;26.63;;;17.07;;
5831;SDS011;50943;51.448;7.646;2023-04-08T09:41:06;24.30;;;16.67;;
5831;SDS011;50943;51.448;7.646;2023-04-08T09:43:35;28.37;;;17.33;;
5831;SDS011;50943;51.448;7.646;2023-04-08T09:46:07;28.60;;;16.20;;
5831;SDS011;50943;51.448;7.646;2023-04-08T09:48:39;28.03;;;15.83;;
5831;SDS011;50943;51.448;7.646;2023-04-08T09:51:11;25.70;;;15.90;;
5831;SDS011;50943;51.448;7.646;2023-04-08T09:53:45;23.57;;;15.90;;
5831;SDS011;50943;51.448;7.646;2023-04-08T09:56:12;26.73;;;16.17;;
5831;SDS011;50943;51.448;7.646;2023-04-08T09:58:43;26.17;;;16.97;;
5831;SDS011;50943;51.448;7.646;2023-04-08T10:01:14;31.03;;;18.50;;
5831;SDS011;50943;51.448;7.646;2023-04-08T10:03:44;26.20;;;16.80;;
5831;SDS011;50943;51.448;7.646;2023-04-08T10:06:16;33.57;;;16.93;;
5831;SDS011;50943;51.448;7.646;2023-04-08T10:08:46;32.50;;;18.30;;
5831;SDS011;50943;51.448;7.646;2023-04-08T10:11:13;28.47;;;17.53;;
5831;SDS011;50943;51.448;7.646;2023-04-08T10:13:41;26.87;;;15.93;;
5831;SDS011;50943;51.448;7.646;2023-04-08T10:16:21;28.47;;;16.80;;
5831;SDS011;50943;51.448;7.646;2023-04-08T10:18:51;28.87;;;16.97;;
5831;SDS011;50943;51.448;7.646;2023-04-08T10:21:30;28.03;;;16.90;;
5831;SDS011;50943;51.448;7.646;2023-04-08T10:23:57;24.17;;;15.60;;
5831;SDS011;50943;51.448;7.646;2023-04-08T10:26:34;23.57;;;14.87;;
5831;SDS011;50943;51.448;7.646;2023-04-08T10:31:58;23.47;;;13.40;;
5831;SDS011;50943;51.448;7.646;2023-04-08T10:34:25;23.27;;;13.60;;
5831;SDS011;50943;51.448;7.646;2023-04-08T10:36:53;22.40;;;14.37;;
5831;SDS011;50943;51.448;7.646;2023-04-08T10:39:21;18.47;;;12.57;;
5831;SDS011;50943;51.448;7.646;2023-04-08T10:41:50;24.57;;;15.03;;
5831;SDS011;50943;51.448;7.646;2023-04-08T10:44:17;20.47;;;12.10;;
5831;SDS011;50943;51.448;7.646;2023-04-08T10:46:45;18.67;;;11.43;;
5831;SDS011;50943;51.448;7.646;2023-04-08T10:49:11;20.30;;;11.10;;
5831;SDS011;50943;51.448;7.646;2023-04-08T10:51:38;18.43;;;10.77;;
5831;SDS011;50943;51.448;7.646;2023-04-08T10:54:05;15.90;;;10.07;;
5831;SDS011;50943;51.448;7.646;2023-04-08T10:56:32;16.40;;;10.00;;
5831;SDS011;50943;51.448;7.646;2023-04-08T10:58:59;15.83;;;9.70;;
5831;SDS011;50943;51.448;7.646;2023-04-08T11:01:26;21.23;;;10.23;;
5831;SDS011;50943;51.448;7.646;2023-04-08T11:03:55;17.07;;;10.17;;
5831;SDS011;50943;51.448;7.646;2023-04-08T11:06:24;15.07;;;10.40;;
5831;SDS011;50943;51.448;7.646;2023-04-08T11:08:51;18.60;;;11.57;;
5831;SDS011;50943;51.448;7.646;2023-04-08T11:11:18;19.80;;;11.43;;
5831;SDS011;50943;51.448;7.646;2023-04-08T11:13:45;17.33;;;11.57;;
5831;SDS011;50943;51.448;7.646;2023-04-08T11:16:12;15.57;;;10.87;;
5831;SDS011;50943;51.448;7.646;2023-04-08T11:18:39;18.13;;;11.47;;
5831;SDS011;50943;51.448;7.646;2023-04-08T11:21:10;19.43;;;12.00;;
5831;SDS011;50943;51.448;7.646;2023-04-08T11:23:37;18.97;;;11.30;;
5831;SDS011;50943;51.448;7.646;2023-04-08T11:26:04;20.07;;;11.80;;
5831;SDS011;50943;51.448;7.646;2023-04-08T11:28:30;17.90;;;12.10;;
5831;SDS011;50943;51.448;7.646;2023-04-08T11:30:57;17.83;;;11.57;;
5831;SDS011;50943;51.448;7.646;2023-04-08T11:33:24;16.87;;;12.13;;
5831;SDS011;50943;51.448;7.646;2023-04-08T11:35:51;18.27;;;12.17;;
5831;SDS011;50943;51.448;7.646;2023-04-08T11:38:22;17.50;;;11.60;;
5831;SDS011;50943;51.448;7.646;2023-04-08T11:40:51;18.40;;;12.10;;
5831;SDS011;50943;51.448;7.646;2023-04-08T11:43:19;19.13;;;12.53;;
5831;SDS011;50943;51.448;7.646;2023-04-08T11:45:46;18.90;;;12.43;;
5831;SDS011;50943;51.448;7.646;2023-04-08T11:48:13;20.13;;;12.03;;
5831;SDS011;50943;51.448;7.646;2023-04-08T11:50:40;21.93;;;14.37;;
5831;SDS011;50943;51.448;7.646;2023-04-08T11:53:15;17.90;;;13.30;;
5831;SDS011;50943;51.448;7.646;2023-04-08T11:55:44;19.57;;;13.67;;
5831;SDS011;50943;51.448;7.646;2023-04-08T11:58:10;21.70;;;14.40;;
5831;SDS011;50943;51.448;7.646;2023-04-08T12:00:37;26.10;;;15.40;;
5831;SDS011;50943;51.448;7.646;2023-04-08T12:03:03;22.20;;;14.70;;
5831;SDS011;50943;51.448;7.646;2023-04-08T12:05:31;23.93;;;15.87;;
5831;SDS011;50943;51.448;7.646;2023-04-08T12:07:57;22.53;;;15.10;;
5831;SDS011;50943;51.448;7.646;2023-04-08T12:10:24;21.83;;;15.23;;
5831;SDS011;50943;51.448;7.646;2023-04-08T12:12:52;25.07;;;16.00;;
5831;SDS011;50943;51.448;7.646;2023-04-08T12:15:18;23.37;;;16.90;;
5831;SDS011;50943;51.448;7.646;2023-04-08T12:17:45;24.80;;;16.67;;
5831;SDS011;50943;51.448;7.646;2023-04-08T12:20:12;30.43;;;17.70;;
5831;SDS011;50943;51.448;7.646;2023-04-08T12:22:41;25.90;;;17.13;;
5831;SDS011;50943;51.448;7.646;2023-04-08T12:25:07;24.60;;;16.77;;
5831;SDS011;50943;51.448;7.646;2023-04-08T12:27:34;23.47;;;16.60;;
5831;SDS011;50943;51.448;7.646;2023-04-08T12:30:03;25.10;;;17.10;;
5831;SDS011;50943;51.448;7.646;2023-04-08T12:32:31;27.77;;;17.87;;
5831;SDS011;50943;51.448;7.646;2023-04-08T12:34:58;24.27;;;15.10;;
5831;SDS011;50943;51.448;7.646;2023-04-08T12:37:25;24.43;;;16.60;;
5831;SDS011;50943;51.448;7.646;2023-04-08T12:39:51;24.47;;;15.83;;
5831;SDS011;50943;51.448;7.646;2023-04-08T12:42:18;21.97;;;15.27;;
5831;SDS011;50943;51.448;7.646;2023-04-08T12:44:45;23.10;;;14.60;;
5831;SDS011;50943;51.448;7.646;2023-04-08T12:47:13;23.60;;;15.73;;
5831;SDS011;50943;51.448;7.646;2023-04-08T12:49:39;20.10;;;13.30;;
5831;SDS011;50943;51.448;7.646;2023-04-08T12:52:05;18.60;;;13.63;;
5831;SDS011;50943;51.448;7.646;2023-04-08T12:54:32;20.43;;;13.33;;
5831;SDS011;50943;51.448;7.646;2023-04-08T12:56:59;21.50;;;13.03;;
5831;SDS011;50943;51.448;7.646;2023-04-08T12:59:25;19.10;;;12.77;;
5831;SDS011;50943;51.448;7.646;2023-04-08T13:01:52;19.23;;;12.83;;
5831;SDS011;50943;51.448;7.646;2023-04-08T13:04:21;19.50;;;13.30;;
5831;SDS011;50943;51.448;7.646;2023-04-08T13:06:48;20.20;;;13.70;;
5831;SDS011;50943;51.448;7.646;2023-04-08T13:09:15;19.43;;;12.33;;
5831;SDS011;50943;51.448;7.646;2023-04-08T13:11:42;20.67;;;13.70;;
5831;SDS011;50943;51.448;7.646;2023-04-08T13:14:09;22.43;;;14.40;;
5831;SDS011;50943;51.448;7.646;2023-04-08T13:16:37;20.47;;;14.27;;
5831;SDS011;50943;51.448;7.646;2023-04-08T13:19:04;24.83;;;13.50;;
5831;SDS011;50943;51.448;7.646;2023-04-08T13:21:32;21.77;;;12.43;;
5831;SDS011;50943;51.448;7.646;2023-04-08T13:23:58;23.37;;;13.60;;
5831;SDS011;50943;51.448;7.646;2023-04-08T13:26:25;19.77;;;12.87;;
5831;SDS011;50943;51.448;7.646;2023-04-08T13:28:52;24.40;;;13.60;;
5831;SDS011;50943;51.448;7.646;2023-04-08T13:31:19;21.73;;;13.70;;
5831;SDS011;50943;51.448;7.646;2023-04-08T13:33:45;23.30;;;14.50;;
5831;SDS011;50943;51.448;7.646;2023-04-08T13:36:12;24.43;;;13.77;;
5831;SDS011;50943;51.448;7.646;2023-04-08T13:38:40;20.07;;;13.10;;
5831;SDS011;50943;51.448;7.646;2023-04-08T13:41:07;19.07;;;12.53;;
5831;SDS011;50943;51.448;7.646;2023-04-08T13:43:34;22.73;;;13.90;;
5831;SDS011;50943;51.448;7.646;2023-04-08T13:46:00;21.37;;;13.83;;
5831;SDS011;50943;51.448;7.646;2023-04-08T13:48:27;22.40;;;13.20;;
5831;SDS011;50943;51.448;7.646;2023-04-08T13:50:53;22.87;;;13.63;;
5831;SDS011;50943;51.448;7.646;2023-04-08T13:53:21;20.10;;;12.77;;
5831;SDS011;50943;51.448;7.646;2023-04-08T13:55:49;20.40;;;14.10;;
5831;SDS011;50943;51.448;7.646;2023-04-08T13:58:19;24.17;;;14.20;;
5831;SDS011;50943;51.448;7.646;2023-04-08T14:00:46;22.13;;;13.90;;
5831;SDS011;50943;51.448;7.646;2023-04-08T14:03:12;21.33;;;13.80;;
5831;SDS011;50943;51.448;7.646;2023-04-08T14:05:39;20.50;;;13.97;;
5831;SDS011;50943;51.448;7.646;2023-04-08T14:08:05;21.13;;;13.47;;
5831;SDS011;50943;51.448;7.646;2023-04-08T14:10:32;22.60;;;14.00;;
5831;SDS011;50943;51.448;7.646;2023-04-08T14:13:00;19.03;;;11.80;;
5831;SDS011;50943;51.448;7.646;2023-04-08T14:15:27;19.90;;;12.40;;
5831;SDS011;50943;51.448;7.646;2023-04-08T14:17:53;25.50;;;12.93;;
5831;SDS011;50943;51.448;7.646;2023-04-08T14:20:21;23.70;;;14.00;;
5831;SDS011;50943;51.448;7.646;2023-04-08T14:22:47;22.10;;;13.10;;
5831;SDS011;50943;51.448;7.646;2023-04-08T14:25:14;22.43;;;13.67;;
5831;SDS011;50943;51.448;7.646;2023-04-08T14:27:41;20.70;;;13.30;;
5831;SDS011;50943;51.448;7.646;2023-04-08T14:30:09;21.87;;;13.10;;
5831;SDS011;50943;51.448;7.646;2023-04-08T14:32:36;20.80;;;12.20;;
5831;SDS011;50943;51.448;7.646;2023-04-08T14:35:03;20.30;;;13.70;;
5831;SDS011;50943;51.448;7.646;2023-04-08T14:37:30;18.20;;;12.17;;